createdAt,value
2023-05-09T00:01:22.203Z,26.07
2023-05-09T00:04:26.582Z,26.16
2023-05-09T00:07:29.891Z,26.28
2023-05-09T00:10:33.079Z,26.46
2023-05-09T00:13:36.496Z,26.38
2023-05-09T00:16:40.196Z,26.60
2023-05-09T00:19:44.253Z,26.65
2023-05-09T00:22:47.439Z,26.48
2023-05-09T00:25:50.637Z,26.41
2023-05-09T00:28:53.991Z,26.42
2023-05-09T00:31:57.504Z,26.41
2023-05-09T00:35:00.917Z,26.43
2023-05-09T00:38:04.215Z,26.54
2023-05-09T00:41:07.825Z,26.17
2023-05-09T00:44:11.709Z,25.49
2023-05-09T00:47:14.897Z,24.52
2023-05-09T00:50:18.716Z,23.28
2023-05-09T00:53:22.240Z,22.42
2023-05-09T00:56:25.567Z,21.41
2023-05-09T00:59:29.175Z,20.75
2023-05-09T01:02:33.198Z,20.40
2023-05-09T01:05:56.213Z,20.11
2023-05-09T01:09:20.522Z,19.51
2023-05-09T01:12:31.391Z,19.06
2023-05-09T01:15:40.313Z,18.82
2023-05-09T01:18:52.593Z,18.62
2023-05-09T01:21:57.859Z,18.57
2023-05-09T01:25:21.615Z,18.58
2023-05-09T01:28:30.501Z,18.50
2023-05-09T01:31:36.560Z,18.51
2023-05-09T01:34:42.056Z,18.55
2023-05-09T01:37:51.228Z,18.49
2023-05-09T01:40:57.621Z,18.42
2023-05-09T01:44:03.895Z,18.38
2023-05-09T01:47:08.480Z,18.34
2023-05-09T01:50:13.476Z,18.45
2023-05-09T01:53:18.716Z,18.50
2023-05-09T01:56:23.292Z,18.41
2023-05-09T01:59:27.001Z,18.65
2023-05-09T02:02:30.514Z,18.56
2023-05-09T02:05:35.745Z,18.72
2023-05-09T02:08:39.711Z,18.87
2023-05-09T02:11:43.002Z,18.93
2023-05-09T02:14:46.531Z,18.83
2023-05-09T02:17:49.956Z,18.68
2023-05-09T02:20:53.349Z,18.63
2023-05-09T02:23:56.538Z,18.56
2023-05-09T02:27:00.655Z,18.61
2023-05-09T02:30:08.151Z,18.54
2023-05-09T02:33:13.652Z,18.50
2023-05-09T02:36:19.806Z,18.47
2023-05-09T02:39:23.567Z,18.48
2023-05-09T02:42:29.818Z,18.68
2023-05-09T02:45:33.285Z,18.90
2023-05-09T02:48:37.129Z,19.03
2023-05-09T02:51:40.329Z,19.23
2023-05-09T02:54:43.628Z,19.29
2023-05-09T02:57:46.912Z,19.30
2023-05-09T03:00:50.174Z,19.37
2023-05-09T03:03:53.422Z,19.45
2023-05-09T03:06:57.704Z,19.80
2023-05-09T03:10:06.850Z,19.84
2023-05-09T03:13:10.744Z,19.84
2023-05-09T03:16:16.380Z,19.82
2023-05-09T03:19:21.049Z,19.79
2023-05-09T03:22:24.262Z,19.84
2023-05-09T03:25:33.138Z,19.96
2023-05-09T03:28:36.367Z,20.01
2023-05-09T03:31:41.506Z,20.03
2023-05-09T03:34:44.829Z,19.97
2023-05-09T03:37:48.220Z,20.10
2023-05-09T03:40:52.167Z,20.14
2023-05-09T03:43:55.613Z,20.02
2023-05-09T03:46:58.887Z,19.96
2023-05-09T03:50:03.295Z,20.11
2023-05-09T03:53:07.217Z,20.23
2023-05-09T03:56:11.990Z,20.41
2023-05-09T03:59:22.085Z,20.36
2023-05-09T04:02:25.440Z,20.30
2023-05-09T04:05:28.924Z,20.35
2023-05-09T04:08:33.291Z,20.41
2023-05-09T04:11:38.514Z,20.35
2023-05-09T04:14:48.909Z,20.27
2023-05-09T04:17:53.291Z,20.28
2023-05-09T04:21:00.339Z,20.41
2023-05-09T04:24:03.778Z,20.22
2023-05-09T04:27:12.962Z,20.23
2023-05-09T04:30:17.518Z,20.35
2023-05-09T04:33:22.059Z,20.40
2023-05-09T04:36:28.329Z,20.50
2023-05-09T04:39:34.094Z,20.66
2023-05-09T04:42:46.481Z,20.75
2023-05-09T04:45:50.142Z,20.89
2023-05-09T04:48:53.297Z,21.16
2023-05-09T04:51:56.868Z,21.26
2023-05-09T04:55:00.811Z,21.28
2023-05-09T04:58:10.303Z,21.38
2023-05-09T05:01:13.763Z,21.36
2023-05-09T05:04:17.220Z,21.33
2023-05-09T05:07:20.751Z,21.35
2023-05-09T05:10:24.068Z,21.30
2023-05-09T05:13:34.775Z,21.23
2023-05-09T05:16:38.856Z,21.22
2023-05-09T05:19:42.242Z,21.16
2023-05-09T05:22:45.805Z,21.35
2023-05-09T05:25:49.720Z,21.51
2023-05-09T05:28:56.166Z,21.58
2023-05-09T05:32:00.937Z,21.64
2023-05-09T05:35:05.611Z,21.70
2023-05-09T05:38:12.014Z,21.45
2023-05-09T05:41:16.349Z,21.13
2023-05-09T05:44:20.811Z,21.21
2023-05-09T05:47:24.152Z,21.42
2023-05-09T05:50:28.239Z,21.62
2023-05-09T05:53:32.786Z,21.63
2023-05-09T05:56:36.928Z,21.68
2023-05-09T05:59:40.531Z,21.82
2023-05-09T06:02:45.794Z,21.94
2023-05-09T06:05:57.141Z,21.87
2023-05-09T06:09:00.400Z,21.58
2023-05-09T06:12:03.690Z,21.40
2023-05-09T06:15:07.665Z,21.32
2023-05-09T06:18:14.845Z,21.41
2023-05-09T06:21:18.142Z,21.44
2023-05-09T06:24:34.658Z,21.58
2023-05-09T06:27:39.882Z,21.75
2023-05-09T06:30:43.115Z,21.86
2023-05-09T06:33:46.332Z,21.90
2023-05-09T06:36:49.537Z,22.00
2023-05-09T06:39:52.706Z,22.05
2023-05-09T06:42:55.853Z,22.10
2023-05-09T06:45:59.052Z,22.09
2023-05-09T06:49:06.779Z,22.02
2023-05-09T06:52:10.231Z,21.96
2023-05-09T06:55:13.618Z,21.97
2023-05-09T06:58:17.161Z,21.99
2023-05-09T07:01:20.475Z,22.17
2023-05-09T07:04:23.676Z,22.31
2023-05-09T07:07:26.898Z,22.42
2023-05-09T07:10:30.086Z,22.48
2023-05-09T07:13:33.297Z,22.46
2023-05-09T07:16:37.617Z,22.34
2023-05-09T07:19:42.016Z,22.24
2023-05-09T07:22:45.401Z,22.18
2023-05-09T07:25:48.786Z,22.03
2023-05-09T07:28:52.022Z,21.97
2023-05-09T07:31:55.311Z,21.94
2023-05-09T07:34:58.880Z,21.84
2023-05-09T07:38:02.155Z,21.84
2023-05-09T07:41:05.680Z,21.87
2023-05-09T07:44:10.249Z,21.94
2023-05-09T07:47:13.220Z,22.19
2023-05-09T07:50:17.769Z,22.13
2023-05-09T07:53:21.740Z,21.96
2023-05-09T07:56:24.917Z,22.00
2023-05-09T07:59:28.204Z,22.11
2023-05-09T08:02:31.815Z,22.23
2023-05-09T08:05:35.131Z,22.35
2023-05-09T08:08:39.057Z,22.42
2023-05-09T08:11:42.458Z,22.44
2023-05-09T08:14:45.715Z,22.40
2023-05-09T08:17:48.965Z,22.33
2023-05-09T08:20:52.320Z,22.34
2023-05-09T08:23:56.509Z,22.37
2023-05-09T08:26:59.639Z,22.34
2023-05-09T08:30:02.914Z,22.21
2023-05-09T08:33:06.142Z,22.10
2023-05-09T08:36:09.848Z,22.10
2023-05-09T08:39:13.052Z,22.15
2023-05-09T08:42:20.664Z,22.20
2023-05-09T08:45:30.364Z,22.23
2023-05-09T08:48:38.729Z,22.19
2023-05-09T08:51:42.124Z,22.18
2023-05-09T08:54:45.600Z,22.13
2023-05-09T08:57:49.391Z,22.16
2023-05-09T09:00:53.569Z,22.16
2023-05-09T09:03:57.275Z,22.15
2023-05-09T09:07:01.393Z,22.11
2023-05-09T09:10:05.427Z,22.11
2023-05-09T09:13:11.036Z,22.12
2023-05-09T09:16:23.140Z,22.10
2023-05-09T09:19:31.951Z,22.02
2023-05-09T09:22:36.429Z,21.93
2023-05-09T09:25:39.661Z,21.87
2023-05-09T09:28:43.580Z,21.89
2023-05-09T09:31:48.255Z,21.86
2023-05-09T09:34:51.607Z,21.82
2023-05-09T09:38:02.243Z,21.82
2023-05-09T09:41:05.320Z,21.75
2023-05-09T09:44:20.235Z,21.77
2023-05-09T09:47:32.852Z,21.72
2023-05-09T09:50:36.006Z,21.59
2023-05-09T09:53:44.119Z,21.57
2023-05-09T09:56:53.976Z,21.49
2023-05-09T10:00:00.570Z,21.43
2023-05-09T10:03:04.154Z,21.34
2023-05-09T10:06:11.996Z,21.32
2023-05-09T10:09:15.135Z,21.25
2023-05-09T10:12:20.765Z,21.19
2023-05-09T10:15:24.634Z,21.12
2023-05-09T10:18:32.275Z,21.07
2023-05-09T10:21:37.953Z,20.97
2023-05-09T10:24:57.895Z,20.90
2023-05-09T10:28:02.598Z,20.82
2023-05-09T10:31:11.541Z,20.77
2023-05-09T10:34:16.071Z,20.63
2023-05-09T10:37:19.063Z,20.64
2023-05-09T10:40:25.343Z,20.48
2023-05-09T10:43:29.483Z,20.37
2023-05-09T10:46:33.121Z,20.27
2023-05-09T10:49:37.289Z,20.15
2023-05-09T10:53:05.705Z,20.06
2023-05-09T10:56:09.058Z,19.89
2023-05-09T10:59:41.957Z,19.77
2023-05-09T11:03:11.009Z,19.58
2023-05-09T11:06:52.225Z,19.41
2023-05-09T11:10:15.315Z,19.25
2023-05-09T11:13:25.209Z,19.14
2023-05-09T11:16:28.870Z,18.94
2023-05-09T11:20:02.306Z,18.82
2023-05-09T11:23:06.720Z,18.64
2023-05-09T11:26:10.281Z,18.46
2023-05-09T11:29:13.673Z,18.28
2023-05-09T11:32:17.070Z,18.09
2023-05-09T11:35:22.637Z,17.93
2023-05-09T11:38:26.308Z,17.80
2023-05-09T11:41:30.680Z,17.67
2023-05-09T11:44:36.167Z,17.53
2023-05-09T11:47:40.177Z,17.36
2023-05-09T11:50:43.879Z,17.25
2023-05-09T11:53:51.408Z,17.14
2023-05-09T11:56:54.651Z,17.01
2023-05-09T12:00:00.943Z,16.96
2023-05-09T12:03:06.620Z,16.92
2023-05-09T12:06:10.341Z,16.87
2023-05-09T12:09:14.642Z,16.82
2023-05-09T12:12:21.503Z,16.74
2023-05-09T12:15:25.159Z,16.67
2023-05-09T12:18:28.496Z,16.57
2023-05-09T12:21:32.133Z,16.47
2023-05-09T12:24:37.612Z,16.42
2023-05-09T12:27:41.985Z,16.41
2023-05-09T12:30:45.903Z,16.33
2023-05-09T12:33:49.430Z,16.24
2023-05-09T12:36:52.852Z,16.11
2023-05-09T12:40:16.099Z,16.00
2023-05-09T12:43:19.494Z,15.89
2023-05-09T12:46:23.317Z,15.83
2023-05-09T12:49:27.596Z,15.80
2023-05-09T12:52:50.702Z,15.77
2023-05-09T12:56:06.537Z,15.72
2023-05-09T12:59:12.275Z,15.68
2023-05-09T13:02:15.655Z,15.60
2023-05-09T13:05:23.504Z,15.54
2023-05-09T13:08:27.293Z,15.45
2023-05-09T13:11:31.321Z,15.43
2023-05-09T13:14:34.742Z,15.44
2023-05-09T13:17:38.519Z,15.38
2023-05-09T13:20:41.787Z,15.36
2023-05-09T13:23:46.309Z,15.32
2023-05-09T13:26:50.224Z,15.25
2023-05-09T13:29:53.635Z,15.22
2023-05-09T13:32:57.011Z,15.16
2023-05-09T13:36:00.320Z,15.14
2023-05-09T13:39:03.941Z,15.03
2023-05-09T13:42:07.262Z,14.91
2023-05-09T13:45:10.926Z,14.83
2023-05-09T13:48:14.281Z,14.70
2023-05-09T13:51:17.874Z,14.62
2023-05-09T13:54:22.613Z,14.56
2023-05-09T13:57:25.820Z,14.47
2023-05-09T14:00:29.596Z,14.41
2023-05-09T14:03:32.903Z,14.35
2023-05-09T14:06:36.418Z,14.30
2023-05-09T14:09:40.788Z,14.28
2023-05-09T14:12:48.012Z,14.24
2023-05-09T14:15:51.297Z,14.15
2023-05-09T14:18:54.574Z,13.97
2023-05-09T14:21:57.957Z,13.83
2023-05-09T14:25:01.694Z,13.81
2023-05-09T14:28:05.170Z,13.80
2023-05-09T14:31:08.398Z,13.77
2023-05-09T14:34:12.140Z,13.68
2023-05-09T14:37:15.454Z,13.48
2023-05-09T14:40:18.886Z,13.28
2023-05-09T14:43:22.929Z,13.17
2023-05-09T14:46:26.453Z,13.13
2023-05-09T14:49:29.751Z,13.13
2023-05-09T14:52:33.065Z,13.12
2023-05-09T14:55:37.017Z,13.14
2023-05-09T14:58:40.420Z,13.13
2023-05-09T15:01:43.602Z,13.12
2023-05-09T15:04:46.916Z,13.12
2023-05-09T15:07:50.259Z,13.12
2023-05-09T15:10:53.866Z,13.04
2023-05-09T15:13:57.341Z,12.93
2023-05-09T15:17:03.781Z,12.78
2023-05-09T15:20:08.197Z,12.63
2023-05-09T15:23:13.749Z,12.53
2023-05-09T15:26:17.723Z,12.38
2023-05-09T15:29:22.529Z,12.30
2023-05-09T15:32:25.618Z,12.32
2023-05-09T15:35:28.994Z,12.18
2023-05-09T15:38:32.278Z,12.05
2023-05-09T15:41:35.492Z,11.98
2023-05-09T15:44:42.146Z,12.06
2023-05-09T15:47:45.426Z,12.23
2023-05-09T15:50:49.188Z,12.30
2023-05-09T15:53:52.737Z,12.23
2023-05-09T15:56:56.620Z,12.09
2023-05-09T15:59:59.817Z,12.05
2023-05-09T16:03:03.109Z,12.16
2023-05-09T16:06:07.074Z,12.45
2023-05-09T16:09:10.525Z,12.69
2023-05-09T16:12:14.469Z,12.82
2023-05-09T16:15:17.605Z,12.85
2023-05-09T16:18:20.829Z,12.77
2023-05-09T16:21:26.964Z,12.72
2023-05-09T16:24:32.302Z,12.56
2023-05-09T16:27:35.554Z,12.27
2023-05-09T16:30:38.890Z,12.01
2023-05-09T16:33:42.182Z,11.77
2023-05-09T16:36:47.058Z,11.58
2023-05-09T16:39:50.566Z,11.51
2023-05-09T16:42:54.527Z,11.22
2023-05-09T16:45:58.355Z,10.80
2023-05-09T16:49:01.633Z,10.45
2023-05-09T16:52:05.040Z,10.22
2023-05-09T16:55:08.902Z,10.19
2023-05-09T16:58:12.327Z,10.23
2023-05-09T17:01:16.444Z,10.29
2023-05-09T17:04:19.717Z,10.29
2023-05-09T17:07:23.060Z,10.28
2023-05-09T17:10:26.416Z,10.32
2023-05-09T17:13:29.838Z,10.44
2023-05-09T17:16:33.862Z,10.49
2023-05-09T17:19:38.818Z,10.49
2023-05-09T17:22:42.056Z,10.43
2023-05-09T17:25:46.232Z,10.36
2023-05-09T17:28:50.428Z,10.28
2023-05-09T17:31:53.778Z,10.15
2023-05-09T17:34:57.044Z,10.02
2023-05-09T17:38:00.234Z,9.88
2023-05-09T17:41:03.532Z,9.78
2023-05-09T17:44:06.688Z,9.67
2023-05-09T17:47:10.148Z,9.48
2023-05-09T17:50:17.870Z,9.23
2023-05-09T17:53:21.274Z,9.13
2023-05-09T17:56:24.718Z,9.14
2023-05-09T17:59:28.647Z,9.18
2023-05-09T18:02:31.866Z,9.17
2023-05-09T18:05:35.374Z,9.14
2023-05-09T18:08:38.683Z,9.08
2023-05-09T18:11:42.117Z,8.95
2023-05-09T18:14:45.424Z,8.86
2023-05-09T18:17:50.148Z,8.81
2023-05-09T18:20:53.313Z,8.74
2023-05-09T18:23:56.564Z,8.63
2023-05-09T18:26:59.837Z,8.53
2023-05-09T18:30:03.090Z,8.44
2023-05-09T18:33:06.455Z,8.31
2023-05-09T18:36:11.647Z,8.33
2023-05-09T18:39:15.775Z,8.34
2023-05-09T18:42:18.939Z,8.30
2023-05-09T18:45:22.214Z,8.21
2023-05-09T18:48:26.325Z,8.18
2023-05-09T18:51:30.464Z,8.15
2023-05-09T18:54:33.673Z,8.09
2023-05-09T18:57:36.913Z,7.98
2023-05-09T19:00:40.784Z,7.91
2023-05-09T19:03:46.706Z,7.93
2023-05-09T19:06:50.109Z,7.99
2023-05-09T19:09:53.431Z,7.96
2023-05-09T19:12:57.329Z,7.85
2023-05-09T19:16:00.596Z,7.76
2023-05-09T19:19:03.732Z,7.66
2023-05-09T19:22:07.396Z,7.59
2023-05-09T19:25:10.799Z,7.51
2023-05-09T19:28:15.242Z,7.47
2023-05-09T19:31:19.502Z,7.49
2023-05-09T19:34:23.544Z,7.54
2023-05-09T19:37:26.742Z,7.57
2023-05-09T19:40:30.871Z,7.59
2023-05-09T19:43:34.001Z,7.59
2023-05-09T19:46:38.712Z,7.53
2023-05-09T19:49:43.580Z,7.48
2023-05-09T19:52:46.773Z,7.28
2023-05-09T19:55:49.887Z,7.14
2023-05-09T19:58:53.103Z,7.06
2023-05-09T20:01:56.270Z,6.97
2023-05-09T20:04:59.676Z,6.88
2023-05-09T20:08:03.075Z,6.93
2023-05-09T20:11:06.348Z,7.03
2023-05-09T20:14:09.659Z,7.07
2023-05-09T20:17:12.768Z,7.08
2023-05-09T20:20:16.156Z,7.08
2023-05-09T20:23:19.486Z,7.08
2023-05-09T20:26:25.013Z,7.03
2023-05-09T20:29:28.425Z,6.93
2023-05-09T20:32:33.836Z,6.87
2023-05-09T20:35:37.076Z,6.76
2023-05-09T20:38:40.244Z,6.55
2023-05-09T20:41:43.414Z,6.15
2023-05-09T20:44:48.203Z,5.93
2023-05-09T20:47:51.395Z,5.87
2023-05-09T20:50:54.568Z,5.86
2023-05-09T20:53:58.003Z,5.83
2023-05-09T20:57:01.165Z,5.83
2023-05-09T21:00:04.651Z,5.86
2023-05-09T21:03:09.727Z,5.97
2023-05-09T21:06:13.136Z,6.17
2023-05-09T21:09:16.352Z,6.36
2023-05-09T21:12:19.448Z,6.53
2023-05-09T21:15:22.562Z,6.58
2023-05-09T21:18:26.035Z,6.58
2023-05-09T21:21:33.759Z,6.58
2023-05-09T21:24:36.968Z,6.53
2023-05-09T21:27:40.196Z,6.48
2023-05-09T21:30:43.454Z,6.42
2023-05-09T21:33:46.591Z,6.39
2023-05-09T21:36:49.853Z,6.37
2023-05-09T21:39:53.049Z,6.44
2023-05-09T21:42:56.226Z,6.62
2023-05-09T21:45:59.824Z,6.80
2023-05-09T21:49:03.042Z,6.93
2023-05-09T21:52:06.251Z,7.05
2023-05-09T21:55:09.899Z,7.54
2023-05-09T21:58:13.027Z,8.46
2023-05-09T22:01:17.339Z,9.27
2023-05-09T22:04:20.529Z,9.99
2023-05-09T22:07:23.772Z,10.45
2023-05-09T22:10:27.128Z,10.94
2023-05-09T22:13:30.432Z,11.26
2023-05-09T22:16:33.775Z,11.61
2023-05-09T22:19:37.285Z,11.89
2023-05-09T22:22:40.507Z,12.24
2023-05-09T22:25:43.731Z,12.61
2023-05-09T22:28:46.946Z,13.02
2023-05-09T22:31:50.212Z,13.63
2023-05-09T22:34:54.804Z,14.14
2023-05-09T22:37:57.957Z,14.68
2023-05-09T22:41:01.255Z,15.10
2023-05-09T22:44:04.550Z,15.75
2023-05-09T22:47:11.156Z,16.90
2023-05-09T22:50:14.626Z,17.89
2023-05-09T22:53:18.852Z,18.36
2023-05-09T22:56:22.877Z,18.85
2023-05-09T22:59:26.056Z,19.24
2023-05-09T23:02:29.613Z,19.58
2023-05-09T23:05:32.751Z,20.28
2023-05-09T23:08:36.147Z,20.93
2023-05-09T23:11:39.341Z,22.01
2023-05-09T23:14:42.843Z,23.24
2023-05-09T23:17:46.160Z,23.92
2023-05-09T23:20:49.271Z,24.29
2023-05-09T23:23:52.443Z,24.66
2023-05-09T23:26:55.647Z,25.34
2023-05-09T23:29:59.219Z,26.02
2023-05-09T23:33:02.712Z,26.55
2023-05-09T23:36:06.297Z,26.89
2023-05-09T23:39:09.922Z,26.35
2023-05-09T23:42:13.212Z,26.13
2023-05-09T23:45:16.486Z,26.60
2023-05-09T23:48:19.766Z,26.87
2023-05-09T23:51:23.293Z,26.37
2023-05-09T23:54:27.577Z,26.25
2023-05-09T23:57:30.717Z,26.34
